Time;durP1;ratioP1;P1;durP2;ratioP2;P2;SDS_P1;SDS_P2;PMS_P1;PMS_P2;Temp;Humidity;BMP_temperature;BMP_pressure;BME280_temperature;BME280_humidity;BME280_pressure;Samples;Min_cycle;Max_cycle;Signal;HPM_P1;HPM_P2
2022/04/18 00:00:09;;;;;;;16.30;13.40;;;;;;;5.66;72.01;102034.81;6186402;23;20080;-83
2022/04/18 00:02:35;;;;;;;19.00;13.60;;;;;;;5.22;72.88;101974.34;6186464;23;20423;-80
2022/04/18 00:05:00;;;;;;;19.42;13.85;;;;;;;5.23;72.90;101983.72;6186217;23;20012;-81
2022/04/18 00:07:26;;;;;;;16.42;13.65;;;;;;;5.25;72.90;101982.81;6186511;23;20012;-80
2022/04/18 00:09:54;;;;;;;17.10;12.70;;;;;;;5.47;73.03;102035.22;6186637;23;20001;-80
2022/04/18 00:12:22;;;;;;;18.42;13.30;;;;;;;5.44;73.56;102029.34;6186046;23;20382;-80
2022/04/18 00:14:49;;;;;;;18.00;13.68;;;;;;;5.35;73.42;102015.00;6186332;23;20381;-81
2022/04/18 00:17:18;;;;;;;17.92;13.18;;;;;;;5.39;72.95;102029.44;6159887;23;20097;-81
2022/04/18 00:19:43;;;;;;;15.15;12.20;;;;;;;5.30;73.02;102013.41;6185974;23;20005;-81
2022/04/18 00:22:12;;;;;;;16.95;13.23;;;;;;;5.01;72.35;101970.53;6159872;23;20020;-81
2022/04/18 00:24:37;;;;;;;16.05;12.90;;;;;;;5.18;73.25;101994.88;6158565;23;20071;-80
2022/04/18 00:27:03;;;;;;;19.05;13.40;;;;;;;5.24;73.42;102016.97;6159102;23;20084;-81
2022/04/18 00:29:29;;;;;;;15.98;12.98;;;;;;;4.98;73.47;101985.97;6159094;23;20067;-81
2022/04/18 00:31:54;;;;;;;15.73;12.77;;;;;;;5.10;73.97;102014.69;6186436;23;20009;-81
2022/04/18 00:34:19;;;;;;;17.23;13.43;;;;;;;4.65;74.30;101951.69;6185868;23;20060;-81
2022/04/18 00:36:47;;;;;;;14.52;12.25;;;;;;;5.11;73.43;102013.84;6185605;23;20478;-80
2022/04/18 00:39:13;;;;;;;17.17;12.10;;;;;;;4.96;73.11;102014.16;6186787;23;19997;-81
2022/04/18 00:41:38;;;;;;;16.20;12.70;;;;;;;5.02;72.95;102024.28;6185743;23;20080;-80
2022/04/18 00:44:06;;;;;;;16.38;11.52;;;;;;;4.62;73.70;101967.91;6159792;23;20005;-80
2022/04/18 00:46:32;;;;;;;16.42;12.05;;;;;;;4.55;74.18;101962.09;6186002;23;20008;-80
2022/04/18 00:48:57;;;;;;;14.07;11.65;;;;;;;4.72;73.95;101987.34;6185705;23;20005;-80
2022/04/18 00:51:25;;;;;;;15.15;12.05;;;;;;;4.79;73.31;102009.38;6158156;23;20096;-80
2022/04/18 00:53:56;;;;;;;14.40;11.38;;;;;;;4.81;74.18;102027.25;6186036;23;20009;-81
2022/04/18 00:56:22;;;;;;;15.65;11.70;;;;;;;4.58;73.86;101986.75;6158569;23;20021;-81
2022/04/18 00:58:49;;;;;;;12.98;10.63;;;;;;;4.85;73.17;102021.22;6185794;23;20303;-80
2022/04/18 01:01:15;;;;;;;13.02;11.30;;;;;;;4.66;73.78;101989.19;6158897;23;20009;-81
2022/04/18 01:03:44;;;;;;;18.55;10.90;;;;;;;4.73;73.64;102006.94;6186058;23;20002;-81
2022/04/18 01:06:10;;;;;;;13.38;10.23;;;;;;;4.80;73.44;102018.72;6185904;23;20005;-80
2022/04/18 01:08:38;;;;;;;13.50;10.73;;;;;;;4.77;74.20;102012.84;6185840;23;20431;-81
2022/04/18 01:11:06;;;;;;;12.35;9.93;;;;;;;4.64;74.45;101999.44;6186027;23;20367;-81
2022/04/18 01:13:47;;;;;;;15.02;10.85;;;;;;;4.52;74.35;101979.19;6185592;23;20423;-81
2022/04/18 01:16:14;;;;;;;14.63;10.65;;;;;;;4.67;74.65;102007.06;6185661;23;20005;-80
2022/04/18 01:18:39;;;;;;;13.60;10.95;;;;;;;4.53;75.39;101993.69;6185967;23;20064;-81
2022/04/18 01:21:06;;;;;;;13.43;10.02;;;;;;;4.36;74.32;101965.03;6185483;23;20379;-80
2022/04/18 01:23:32;;;;;;;12.95;9.02;;;;;;;4.37;73.31;101971.84;6159729;23;20021;-81
2022/04/18 01:28:58;;;;;;;12.07;9.45;;;;;;;4.31;74.22;101970.22;6185814;23;20350;-81
2022/04/18 01:31:32;;;;;;;12.77;10.13;;;;;;;4.29;74.87;101974.53;6185346;23;20006;-81
2022/04/18 01:33:58;;;;;;;13.18;10.85;;;;;;;4.37;75.16;101998.25;6185495;23;20009;-81
2022/04/18 01:36:25;;;;;;;13.13;10.00;;;;;;;4.35;75.35;101999.16;6185740;23;20001;-81
2022/04/18 01:38:50;;;;;;;14.60;9.73;;;;;;;4.25;75.57;101996.78;6185596;23;20005;-81
2022/04/18 01:41:16;;;;;;;13.52;9.80;;;;;;;4.32;74.67;102006.00;6185316;23;20040;-81
2022/04/18 01:43:41;;;;;;;13.07;10.02;;;;;;;4.15;74.73;101991.84;6185840;23;20067;-80
2022/04/18 01:46:09;;;;;;;13.45;10.02;;;;;;;4.21;75.14;102010.47;6185679;23;20059;-80
2022/04/18 01:48:35;;;;;;;13.27;9.93;;;;;;;4.20;75.47;102001.09;6185484;23;20018;-80
2022/04/18 01:51:00;;;;;;;13.05;9.85;;;;;;;4.00;75.86;101985.28;6185694;23;20005;-80
2022/04/18 01:53:27;;;;;;;12.65;9.80;;;;;;;3.72;75.72;101944.00;6185668;23;20415;-78
2022/04/18 01:55:53;;;;;;;14.13;10.27;;;;;;;3.34;75.93;101891.00;6185980;23;20005;-81
2022/04/18 01:58:18;;;;;;;13.20;10.13;;;;;;;3.99;75.67;101997.22;6185712;23;19997;-81
2022/04/18 02:00:44;;;;;;;11.80;9.52;;;;;;;3.99;76.15;101998.94;6185496;23;20427;-81
2022/04/18 02:03:09;;;;;;;12.75;9.80;;;;;;;3.94;76.16;101993.06;6185766;23;20048;-80
2022/04/18 02:05:34;;;;;;;11.10;9.63;;;;;;;3.94;76.40;101998.19;6185653;23;20129;-81
2022/04/18 02:08:00;;;;;;;14.57;9.50;;;;;;;3.79;75.97;101960.09;6185041;23;20001;-80
2022/04/18 02:10:25;;;;;;;11.68;9.27;;;;;;;3.92;76.02;101994.78;6185244;23;20001;-80
2022/04/18 02:12:50;;;;;;;13.05;9.25;;;;;;;3.91;76.08;101986.28;6185672;23;20040;-81
2022/04/18 02:15:16;;;;;;;12.32;9.70;;;;;;;3.86;76.36;101987.22;6185509;23;20060;-80
2022/04/18 02:17:42;;;;;;;13.63;9.52;;;;;;;3.72;76.58;101975.50;6158971;23;20058;-81
2022/04/18 02:20:08;;;;;;;11.15;8.93;;;;;;;3.67;75.21;101967.09;6185344;23;20001;-81
2022/04/18 02:22:33;;;;;;;11.38;8.73;;;;;;;3.77;75.97;101985.66;6185515;23;20113;-80
2022/04/18 02:24:59;;;;;;;11.77;9.32;;;;;;;3.70;76.83;101981.50;6185363;23;20075;-81
2022/04/18 02:27:26;;;;;;;12.23;8.98;;;;;;;3.67;76.87;101979.84;6185267;23;20005;-81
2022/04/18 02:29:52;;;;;;;11.77;8.80;;;;;;;3.44;76.92;101941.91;6185572;23;20102;-81
2022/04/18 02:35:01;;;;;;;10.13;7.85;;;;;;;3.56;77.13;101978.34;6185711;23;20063;-81
2022/04/18 02:37:26;;;;;;;16.00;8.70;;;;;;;3.12;77.05;101913.47;6185318;23;20001;-80
2022/04/18 02:39:54;;;;;;;11.00;8.07;;;;;;;3.52;77.00;101974.13;6185134;23;20008;-80
2022/04/18 02:42:22;;;;;;;12.73;8.88;;;;;;;3.49;77.10;101980.13;6185103;23;20131;-81
2022/04/18 02:44:48;;;;;;;12.20;8.70;;;;;;;3.32;76.77;101943.78;6158678;23;20339;-80
2022/04/18 02:47:14;;;;;;;13.25;9.43;;;;;;;3.35;76.62;101947.16;6159134;23;20005;-80
2022/04/18 02:49:39;;;;;;;11.10;8.68;;;;;;;3.14;76.12;101909.19;6185136;23;20313;-81
2022/04/18 02:52:05;;;;;;;11.55;9.07;;;;;;;3.45;77.20;101968.31;6185575;23;20005;-80
2022/04/18 02:54:30;;;;;;;14.93;9.32;;;;;;;3.19;76.88;101924.44;6184923;23;20013;-81
2022/04/18 02:56:55;;;;;;;12.45;8.68;;;;;;;3.42;77.29;101960.66;6185178;23;20041;-81
2022/04/18 02:59:21;;;;;;;10.85;9.02;;;;;;;3.35;77.37;101956.53;6185772;23;20008;-80
2022/04/18 03:01:46;;;;;;;11.30;9.13;;;;;;;3.29;77.96;101947.25;6186662;23;20001;-80
2022/04/18 03:04:11;;;;;;;13.52;9.05;;;;;;;3.28;77.68;101954.94;6186813;23;20012;-80
2022/04/18 03:06:37;;;;;;;11.07;8.63;;;;;;;3.13;78.03;101935.56;6187252;23;20011;-81
2022/04/18 03:09:02;;;;;;;13.27;9.10;;;;;;;3.00;77.94;101913.66;6186593;23;20033;-81
2022/04/18 03:11:27;;;;;;;11.18;9.05;;;;;;;3.04;77.97;101920.38;6187101;23;20067;-81
2022/04/18 03:13:53;;;;;;;10.85;8.40;;;;;;;2.90;78.18;101905.28;6186442;23;20036;-80
2022/04/18 03:16:18;;;;;;;11.05;9.52;;;;;;;2.93;78.61;101914.59;6187140;23;20009;-81
2022/04/18 03:18:44;;;;;;;12.18;9.10;;;;;;;2.92;78.54;101923.94;6160606;23;20428;-81
2022/04/18 03:21:10;;;;;;;12.43;9.02;;;;;;;2.68;78.74;101898.78;6186732;23;20016;-84
2022/04/18 03:23:35;;;;;;;10.77;9.00;;;;;;;2.91;78.93;101939.28;6187029;23;20367;-80
2022/04/18 03:26:01;;;;;;;10.13;8.25;;;;;;;2.69;79.06;101905.56;6186926;23;20510;-80
2022/04/18 03:28:26;;;;;;;10.25;8.75;;;;;;;2.83;79.52;101941.94;6186998;23;20132;-81
2022/04/18 03:30:52;;;;;;;10.48;8.55;;;;;;;2.83;79.01;101942.78;6186796;23;20407;-80
2022/04/18 03:33:18;;;;;;;12.60;8.52;;;;;;;2.57;78.76;101907.44;6186475;23;20002;-81
2022/04/18 03:39:50;;;;;;;11.73;8.93;;;;;;;2.80;79.17;101936.88;6186129;23;20125;-83
2022/04/18 03:41:21;;;;;;;10.68;8.43;;;;;;;2.58;79.45;101914.22;6164040;23;20024;-80
2022/04/18 03:43:47;;;;;;;11.20;8.23;;;;;;;2.35;79.67;101884.75;6186258;23;20005;-85
2022/04/18 03:46:12;;;;;;;10.50;8.57;;;;;;;2.72;78.71;101954.81;6186815;23;20005;-81
2022/04/18 03:48:37;;;;;;;11.82;9.20;;;;;;;2.64;78.81;101943.03;6160198;23;20039;-85
2022/04/18 03:51:03;;;;;;;11.65;8.35;;;;;;;2.23;78.02;101878.94;6186569;23;20001;-86
2022/04/18 03:53:28;;;;;;;9.80;7.40;;;;;;;2.65;76.73;101949.81;6186350;23;20005;-80
2022/04/18 03:55:53;;;;;;;12.10;8.50;;;;;;;2.50;78.96;101938.94;6186181;23;20085;-83
2022/04/18 03:58:19;;;;;;;10.48;8.50;;;;;;;2.48;78.75;101933.03;6186251;23;20012;-81
2022/04/18 04:00:44;;;;;;;10.55;8.52;;;;;;;2.46;79.03;101928.78;6186533;23;20009;-84
2022/04/18 04:03:11;;;;;;;11.00;9.02;;;;;;;2.37;79.04;101909.38;6186398;23;20005;-84
2022/04/18 04:05:37;;;;;;;11.77;8.25;;;;;;;2.48;79.69;101937.28;6160180;23;19997;-80
2022/04/18 04:08:02;;;;;;;12.43;9.25;;;;;;;2.25;79.98;101907.78;6186638;23;20084;-80
2022/04/18 04:10:32;;;;;;;11.48;8.35;;;;;;;2.42;79.95;101939.91;6185839;23;20028;-81
2022/04/18 04:12:57;;;;;;;10.43;8.68;;;;;;;2.09;79.44;101891.00;6186351;23;20304;-80
2022/04/18 04:15:22;;;;;;;11.23;8.25;;;;;;;2.15;79.21;101902.81;6158957;23;20058;-81
2022/04/18 04:17:48;;;;;;;11.35;8.45;;;;;;;2.08;80.43;101896.13;6186210;23;20093;-80
2022/04/18 04:20:13;;;;;;;11.88;8.88;;;;;;;2.03;80.65;101891.06;6186493;23;20412;-81
2022/04/18 04:22:48;;;;;;;11.32;8.80;;;;;;;2.02;80.53;101899.56;6186513;23;20009;-80
2022/04/18 04:25:15;;;;;;;11.52;8.57;;;;;;;2.14;80.38;101914.72;6185946;23;20008;-80
2022/04/18 04:27:40;;;;;;;12.23;8.90;;;;;;;2.22;80.75;101929.91;6186241;23;20009;-81
2022/04/18 04:30:06;;;;;;;12.40;8.73;;;;;;;2.17;81.00;101924.03;6186419;23;20001;-80
2022/04/18 04:32:31;;;;;;;11.75;8.73;;;;;;;2.24;80.62;101935.84;6186050;23;20001;-80
2022/04/18 04:34:57;;;;;;;11.38;8.82;;;;;;;2.11;80.98;101914.75;6186108;23;20005;-85
2022/04/18 04:37:22;;;;;;;12.93;8.73;;;;;;;2.19;80.58;101933.34;6158857;23;20020;-80
2022/04/18 04:39:48;;;;;;;10.77;8.25;;;;;;;2.19;80.55;101938.44;6185830;23;20108;-82
2022/04/18 04:42:14;;;;;;;11.38;8.73;;;;;;;2.20;80.71;101947.78;6185557;23;20005;-81
2022/04/18 04:44:40;;;;;;;11.60;8.73;;;;;;;2.19;81.16;101945.25;6159727;23;20005;-80
2022/04/18 04:47:05;;;;;;;11.07;8.77;;;;;;;2.19;81.03;101938.44;6186477;23;20005;-81
2022/04/18 04:49:31;;;;;;;11.98;9.15;;;;;;;1.94;80.73;101898.78;6186273;23;20016;-83
2022/04/18 04:51:56;;;;;;;11.25;8.77;;;;;;;2.22;80.92;101951.16;6186293;23;20013;-80
2022/04/18 04:54:22;;;;;;;11.50;8.38;;;;;;;2.24;80.59;101949.41;6185522;23;20009;-80
2022/04/18 04:56:48;;;;;;;12.55;8.82;;;;;;;2.13;80.41;101920.66;6185572;23;20005;-81
2022/04/18 04:59:13;;;;;;;11.57;8.70;;;;;;;2.27;80.99;101946.88;6186123;23;20055;-81
2022/04/18 05:01:38;;;;;;;11.45;8.48;;;;;;;2.29;81.17;101946.84;6186108;23;20081;-80
2022/04/18 05:04:04;;;;;;;10.50;8.18;;;;;;;2.24;81.18;101943.47;6186177;23;20001;-80
2022/04/18 05:06:29;;;;;;;11.35;8.23;;;;;;;2.30;81.24;101946.81;6186087;23;20026;-80
2022/04/18 05:08:55;;;;;;;10.85;7.97;;;;;;;2.35;81.26;101949.31;6185583;23;20008;-81
2022/04/18 05:11:20;;;;;;;10.93;7.82;;;;;;;2.16;80.76;101909.59;6185450;23;20335;-81
2022/04/18 05:13:46;;;;;;;11.43;7.82;;;;;;;2.45;81.01;101953.44;6185368;23;20407;-81
2022/04/18 05:16:11;;;;;;;12.20;8.70;;;;;;;2.52;81.30;101957.63;6186089;23;20028;-81
2022/04/18 05:18:37;;;;;;;12.98;8.85;;;;;;;2.29;80.74;101899.25;6185812;23;20012;-82
2022/04/18 05:21:02;;;;;;;11.98;8.25;;;;;;;2.56;81.16;101943.16;6158722;23;20335;-80
2022/04/18 05:23:27;;;;;;;10.98;8.50;;;;;;;2.71;81.37;101971.00;6185502;23;20012;-81
2022/04/18 05:25:53;;;;;;;11.95;8.48;;;;;;;2.77;80.99;101958.19;6185740;23;20009;-81
2022/04/18 05:28:18;;;;;;;11.98;8.15;;;;;;;2.78;80.30;101942.00;6185840;23;20323;-83
2022/04/18 05:30:44;;;;;;;10.80;8.63;;;;;;;2.94;80.10;101957.09;6185737;23;20009;-80
2022/04/18 05:33:09;;;;;;;10.93;8.50;;;;;;;3.02;80.22;101955.28;6158757;23;20038;-80
2022/04/18 05:35:35;;;;;;;13.02;8.40;;;;;;;3.02;79.83;101937.44;6158889;23;20009;-80
2022/04/18 05:38:00;;;;;;;10.15;8.27;;;;;;;3.00;78.86;101917.03;6185853;23;20072;-80
2022/04/18 05:40:26;;;;;;;14.10;8.60;;;;;;;3.22;77.40;101932.03;6185624;23;20013;-80
2022/04/18 05:42:54;;;;;;;11.63;8.27;;;;;;;3.23;77.17;101909.03;6158914;23;20420;-80
2022/04/18 05:45:19;;;;;;;11.98;7.35;;;;;;;3.73;74.82;101963.56;6185469;23;19997;-80
2022/04/18 05:47:45;;;;;;;12.02;7.70;;;;;;;4.12;75.32;101933.94;6158945;23;20016;-80
2022/04/18 05:50:12;;;;;;;10.18;7.00;;;;;;;6.00;70.29;101961.38;6185670;23;20001;-79
2022/04/18 05:52:38;;;;;;;10.05;6.82;;;;;;;8.26;63.21;101948.47;6185412;23;20008;-79
2022/04/18 05:55:04;;;;;;;9.75;6.25;;;;;;;9.95;56.65;101926.41;6185823;23;20005;-80
2022/04/18 05:57:29;;;;;;;8.32;5.60;;;;;;;11.82;50.18;101941.03;6185638;23;20002;-79
2022/04/18 05:59:54;;;;;;;11.13;6.22;;;;;;;13.15;48.37;101929.56;6185154;23;20005;-79
2022/04/18 06:02:20;;;;;;;9.27;5.40;;;;;;;14.26;42.32;101946.44;6185813;23;20076;-80
2022/04/18 06:04:46;;;;;;;7.72;4.72;;;;;;;15.03;41.16;101936.47;6158774;23;20001;-79
2022/04/18 06:07:11;;;;;;;9.27;5.20;;;;;;;15.90;39.45;101939.41;6185823;23;20008;-80
2022/04/18 06:12:36;;;;;;;8.10;5.13;;;;;;;16.66;41.00;101805.47;6181448;23;20028;-79
2022/04/18 06:15:05;;;;;;;7.60;4.60;;;;;;;17.36;34.28;101843.81;6159194;23;20040;-81
2022/04/18 06:17:33;;;;;;;6.63;4.70;;;;;;;17.89;34.17;101919.88;6185405;23;20036;-78
2022/04/18 06:19:58;;;;;;;7.60;4.32;;;;;;;18.06;33.29;101922.88;6185049;23;20453;-78
2022/04/18 06:22:24;;;;;;;9.10;5.38;;;;;;;18.31;32.77;101902.69;6185410;23;20005;-81
2022/04/18 06:24:49;;;;;;;6.97;4.53;;;;;;;18.81;33.06;101913.56;6185214;23;20009;-81
2022/04/18 06:27:14;;;;;;;7.65;5.00;;;;;;;19.26;31.40;101944.78;6185245;23;20474;-79
2022/04/18 06:29:40;;;;;;;8.32;4.50;;;;;;;19.58;30.08;101936.94;6185618;23;20001;-80
2022/04/18 06:32:06;;;;;;;7.38;4.95;;;;;;;19.46;30.78;101905.50;6185383;23;20005;-78
2022/04/18 06:34:31;;;;;;;8.23;4.60;;;;;;;19.84;30.10;101929.50;6186934;23;20012;-80
2022/04/18 06:36:57;;;;;;;9.13;4.45;;;;;;;19.91;29.38;101922.78;6187177;23;20343;-81
2022/04/18 06:39:47;;;;;;;6.18;3.92;;;;;;;20.53;32.67;101937.53;6187441;23;20383;-79
2022/04/18 06:42:12;;;;;;;8.02;4.13;;;;;;;20.91;28.32;101937.59;6186999;23;20001;-80
2022/04/18 06:44:38;;;;;;;5.97;3.70;;;;;;;21.08;28.04;101924.75;6187397;23;20010;-81
2022/04/18 06:47:03;;;;;;;6.07;4.18;;;;;;;21.28;27.94;101939.56;6186939;23;20001;-82
2022/04/18 06:49:29;;;;;;;8.68;4.43;;;;;;;21.22;27.21;101871.78;6187377;23;20009;-80
2022/04/18 06:51:54;;;;;;;5.93;3.95;;;;;;;21.72;27.45;101909.19;6160280;23;20072;-81
2022/04/18 06:54:19;;;;;;;5.38;3.63;;;;;;;21.81;26.80;101907.50;6187199;23;20012;-81
2022/04/18 06:57:00;;;;;;;5.88;3.88;;;;;;;22.24;26.13;101903.50;6186903;23;20427;-79
2022/04/18 06:59:29;;;;;;;7.10;3.67;;;;;;;22.41;26.21;101922.91;6187240;23;20462;-83
2022/04/18 07:01:56;;;;;;;6.43;3.80;;;;;;;21.87;25.98;101930.59;6186791;23;20053;-82
2022/04/18 07:04:21;;;;;;;7.30;4.22;;;;;;;21.28;26.95;101897.53;6187244;23;20060;-83
2022/04/18 07:06:46;;;;;;;5.28;3.63;;;;;;;21.44;26.67;101929.34;6186972;23;20001;-83
2022/04/18 07:09:12;;;;;;;7.03;3.42;;;;;;;21.63;27.06;101917.97;6160523;23;20010;-83
2022/04/18 07:11:37;;;;;;;6.15;3.53;;;;;;;20.61;27.11;101908.81;6186775;23;20013;-82
2022/04/18 07:14:06;;;;;;;5.63;3.63;;;;;;;18.60;29.30;101906.44;6160538;23;20005;-82
2022/04/18 07:16:31;;;;;;;7.68;3.90;;;;;;;17.10;32.21;101943.13;6186766;23;20001;-82
2022/04/18 07:18:58;;;;;;;5.93;3.83;;;;;;;15.66;34.53;101910.66;6186637;23;20004;-83
2022/04/18 07:21:23;;;;;;;7.57;4.10;;;;;;;14.80;36.37;101927.56;6186674;23;20502;-82
2022/04/18 07:23:49;;;;;;;6.07;3.55;;;;;;;13.91;38.35;101906.16;6187013;23;20087;-83
2022/04/18 07:26:23;;;;;;;5.07;3.55;;;;;;;13.59;39.72;101937.44;6186672;23;20005;-81
2022/04/18 07:28:49;;;;;;;5.45;3.50;;;;;;;13.07;41.60;101931.75;6186567;23;20111;-83
2022/04/18 07:31:14;;;;;;;6.30;3.83;;;;;;;12.84;41.31;101940.81;6186922;23;20423;-80
2022/04/18 07:33:40;;;;;;;7.57;3.92;;;;;;;12.54;42.86;101928.59;6186455;23;20020;-82
2022/04/18 07:36:06;;;;;;;6.53;3.90;;;;;;;12.33;42.42;101927.97;6160325;23;20342;-83
2022/04/18 07:38:50;;;;;;;5.20;3.60;;;;;;;12.16;43.21;101912.47;6186557;23;20001;-84
2022/04/18 07:41:21;;;;;;;7.45;3.72;;;;;;;12.26;43.75;101936.13;6186346;23;20005;-83
2022/04/18 07:43:47;;;;;;;5.47;3.28;;;;;;;12.18;43.25;101927.94;6186602;23;20012;-83
2022/04/18 07:46:15;;;;;;;6.82;3.70;;;;;;;12.20;44.46;101932.13;6186348;23;20029;-83
2022/04/18 07:48:40;;;;;;;6.88;3.78;;;;;;;12.11;44.69;101903.28;6186590;23;20085;-83
2022/04/18 07:53:50;;;;;;;6.20;3.47;;;;;;;12.32;44.32;101923.72;6186519;23;20506;-83
2022/04/18 07:56:15;;;;;;;5.20;3.67;;;;;;;12.18;43.36;101896.84;6186336;23;20005;-83
2022/04/18 07:58:43;;;;;;;6.05;3.60;;;;;;;12.22;43.21;101890.63;6186107;23;20032;-83
2022/04/18 08:01:09;;;;;;;6.18;3.50;;;;;;;12.45;43.45;101917.88;6186591;23;20375;-84
2022/04/18 08:03:54;;;;;;;8.00;3.80;;;;;;;12.39;42.21;101903.50;6186324;23;20056;-82
2022/04/18 08:06:20;;;;;;;5.05;3.53;;;;;;;12.56;42.48;101920.72;6159471;23;20092;-82
2022/04/18 08:08:46;;;;;;;5.10;3.33;;;;;;;12.52;43.19;101899.34;6186448;23;20076;-81
2022/04/18 08:11:30;;;;;;;5.53;3.20;;;;;;;12.72;43.20;101911.22;6186023;23;20009;-88
2022/04/18 08:13:58;;;;;;;5.35;3.47;;;;;;;12.90;43.49;101920.56;6186222;23;20375;-82
2022/04/18 08:16:24;;;;;;;5.95;3.65;;;;;;;13.02;41.85;101926.81;6186273;23;20002;-81
2022/04/18 08:18:49;;;;;;;6.20;3.97;;;;;;;12.86;42.30;101874.16;6186602;23;20007;-85
2022/04/18 08:21:17;;;;;;;5.40;3.38;;;;;;;13.02;42.65;101885.34;6186757;23;20005;-82
2022/04/18 08:31:55;;;;;;;5.28;3.38;;;;;;;12.67;40.84;101738.72;6184923;23;20021;-83
2022/04/18 08:34:21;;;;;;;6.50;3.65;;;;;;;12.93;39.20;101769.19;6186072;23;20135;-80
2022/04/18 08:37:01;;;;;;;5.25;3.15;;;;;;;12.82;41.05;101722.31;6186112;23;20025;-82
2022/04/18 08:39:40;;;;;;;5.30;3.30;;;;;;;13.73;40.25;101858.75;6185650;23;20475;-82
2022/04/18 08:42:06;;;;;;;5.20;3.40;;;;;;;14.27;38.93;101921.28;6186349;23;20181;-82
2022/04/18 08:44:34;;;;;;;5.57;3.40;;;;;;;14.27;38.14;101903.13;6186178;23;20005;-81
2022/04/18 08:47:02;;;;;;;7.07;3.15;;;;;;;14.47;36.80;101918.34;6184822;23;20327;-82
2022/04/18 09:01:31;;;;;;;5.32;3.33;;;;;;;14.67;36.91;101859.06;6182902;23;20068;-81
2022/04/18 09:04:03;;;;;;;5.03;3.25;;;;;;;14.67;35.77;101856.47;6185817;23;20435;-81
2022/04/18 09:06:29;;;;;;;5.18;3.45;;;;;;;14.88;36.05;101862.88;6185018;23;20415;-86
2022/04/18 09:08:56;;;;;;;5.78;3.75;;;;;;;15.12;36.30;101895.09;6159845;23;20038;-78
2022/04/18 09:11:32;;;;;;;4.82;3.53;;;;;;;15.26;35.72;101907.22;6185997;23;20053;-78
2022/04/18 09:14:10;;;;;;;5.85;3.70;;;;;;;15.31;36.75;101905.13;6185564;23;20009;-79
2022/04/18 09:16:37;;;;;;;5.45;3.75;;;;;;;15.24;36.02;101884.81;6185552;23;20029;-80
2022/04/18 09:19:14;;;;;;;6.10;3.63;;;;;;;15.44;35.80;101900.81;6159512;23;20019;-81
2022/04/18 09:21:54;;;;;;;6.70;3.58;;;;;;;15.53;35.10;101903.72;6185887;23;20009;-80
2022/04/18 09:24:34;;;;;;;4.25;3.00;;;;;;;15.60;35.34;101899.78;6186110;23;20012;-82
2022/04/18 09:27:27;;;;;;;5.88;3.75;;;;;;;15.55;34.45;101901.88;6185824;23;20056;-81
2022/04/18 09:30:10;;;;;;;5.75;3.30;;;;;;;15.63;35.12;101899.59;6167168;23;20029;-80
2022/04/18 09:32:36;;;;;;;4.75;3.15;;;;;;;15.75;34.65;101894.41;6185732;23;20335;-80
2022/04/18 09:35:05;;;;;;;6.32;3.30;;;;;;;15.82;35.04;101892.19;6185444;23;20001;-82
2022/04/18 09:37:32;;;;;;;4.57;3.28;;;;;;;15.88;33.75;101886.59;6185485;23;20092;-81
2022/04/18 09:39:58;;;;;;;5.43;3.20;;;;;;;16.09;33.46;101896.47;6185823;23;20068;-80
2022/04/18 09:42:28;;;;;;;6.55;3.20;;;;;;;16.18;33.13;101898.44;6185766;23;20336;-81
2022/04/18 09:44:54;;;;;;;3.95;2.80;;;;;;;16.07;32.54;101862.72;6185802;23;20001;-81
2022/04/18 09:47:22;;;;;;;6.10;3.35;;;;;;;16.43;34.12;101885.38;6185212;23;20007;-81
2022/04/18 09:49:48;;;;;;;5.40;2.70;;;;;;;16.47;32.27;101891.19;6185198;23;20001;-81
2022/04/18 09:52:16;;;;;;;5.32;3.35;;;;;;;16.28;31.45;101855.16;6185834;23;20087;-81
2022/04/18 09:54:53;;;;;;;4.97;3.33;;;;;;;16.47;32.08;101881.59;6185500;23;20009;-80
2022/04/18 09:57:28;;;;;;;5.93;3.30;;;;;;;16.56;33.03;101882.72;6185390;23;20005;-80
2022/04/18 09:59:56;;;;;;;4.45;2.85;;;;;;;16.55;33.37;101852.38;6185782;23;20011;-79
2022/04/18 10:02:24;;;;;;;5.13;3.17;;;;;;;16.61;31.30;101875.38;6184908;23;20009;-80
2022/04/18 10:04:49;;;;;;;4.63;3.22;;;;;;;16.48;32.00;101846.75;6185176;23;20423;-79
2022/04/18 10:07:16;;;;;;;5.75;2.85;;;;;;;16.62;31.91;101867.47;6185327;23;20013;-80
2022/04/18 10:09:43;;;;;;;4.53;3.00;;;;;;;16.77;32.08;101873.38;6187357;23;20005;-80
2022/04/18 10:12:10;;;;;;;5.22;2.90;;;;;;;16.74;29.96;101870.16;6187688;23;20009;-79
2022/04/18 10:14:37;;;;;;;6.40;3.30;;;;;;;16.51;30.38;101840.47;6187266;23;20506;-79
2022/04/18 10:17:05;;;;;;;6.07;2.83;;;;;;;16.64;32.68;101841.28;6186958;23;20033;-80
2022/04/18 10:20:27;;;;;;;6.85;2.80;;;;;;;16.91;32.35;101854.94;6187475;23;20436;-79
2022/04/18 10:23:07;;;;;;;;;;;;;;;17.00;32.69;101856.03;6188276;23;20017;-79
2022/04/18 10:25:54;;;;;;;5.53;3.13;;;;;;;17.06;31.09;101850.38;6187569;23;19920;-79
2022/04/18 10:28:25;;;;;;;5.60;2.80;;;;;;;17.06;30.29;101846.94;6187567;23;20005;-77
2022/04/18 10:30:59;;;;;;;3.42;2.67;;;;;;;17.03;31.60;101841.94;6187028;23;20001;-80
2022/04/18 10:33:26;;;;;;;4.05;2.45;;;;;;;17.06;29.61;101836.50;6186925;23;20147;-79
2022/04/18 10:35:53;;;;;;;6.60;3.03;;;;;;;17.13;29.61;101846.38;6187515;23;20001;-78
2022/04/18 10:38:25;;;;;;;4.75;2.80;;;;;;;17.08;29.45;101838.03;6187208;23;20028;-78
2022/04/18 10:40:51;;;;;;;4.97;2.78;;;;;;;17.06;30.23;101836.50;6187162;23;20001;-78
2022/04/18 10:43:16;;;;;;;4.57;2.75;;;;;;;16.93;29.82;101815.69;6159977;23;20009;-80
2022/04/18 10:45:42;;;;;;;4.03;2.58;;;;;;;17.04;31.04;101834.00;6187061;23;20071;-79
2022/04/18 10:48:13;;;;;;;4.43;2.72;;;;;;;17.13;30.81;101838.53;6186954;23;20002;-80
2022/04/18 10:54:13;;;;;;;4.15;2.58;;;;;;;17.24;30.33;101834.28;6187133;23;20453;-77
2022/04/18 11:00:27;;;;;;;;;;;;;;;17.35;31.67;101831.69;6189283;23;20011;-77
2022/04/18 11:09:23;;;;;;;4.82;2.83;;;;;;;17.43;30.95;101831.94;6217259;23;20025;-80
2022/04/18 11:11:53;;;;;;;4.28;2.88;;;;;;;17.45;29.85;101827.44;6217283;23;20035;-80
2022/04/18 11:15:03;;;;;;;5.03;2.90;;;;;;;17.05;30.28;101746.94;6216650;23;20011;-80
2022/04/18 11:17:39;;;;;;;5.50;2.75;;;;;;;17.49;28.88;101821.03;6189274;23;20009;-81
2022/04/18 11:20:24;;;;;;;5.45;2.88;;;;;;;17.50;30.21;101817.47;6216413;23;20011;-80
2022/04/18 11:23:50;;;;;;;5.28;3.05;;;;;;;17.51;30.06;101820.94;6216966;23;20028;-81
2022/04/18 11:26:20;;;;;;;4.05;2.80;;;;;;;17.43;28.36;101819.72;6124857;23;20443;-80
2022/04/18 11:28:52;;;;;;;7.18;3.28;;;;;;;17.54;29.83;101821.53;6124736;23;20010;-79
2022/04/18 11:31:19;;;;;;;5.43;3.42;;;;;;;17.54;28.90;101812.84;6125060;23;20114;-81
2022/04/18 11:33:45;;;;;;;4.05;2.70;;;;;;;17.53;29.31;101817.25;6124572;23;20149;-81
2022/04/18 11:36:11;;;;;;;7.60;3.55;;;;;;;17.58;29.35;101816.88;6124854;23;20037;-82
2022/04/18 11:38:37;;;;;;;5.43;3.20;;;;;;;17.21;28.47;101757.06;6124887;23;20017;-84
2022/04/18 11:41:13;;;;;;;4.53;3.00;;;;;;;17.30;29.21;101777.19;6124981;23;20254;-85
2022/04/18 11:43:39;;;;;;;5.05;3.30;;;;;;;17.54;28.70;101805.84;6124794;23;20017;-80
2022/04/18 11:46:07;;;;;;;6.20;3.72;;;;;;;17.35;29.28;101780.31;6124999;23;20041;-84
2022/04/18 11:48:34;;;;;;;10.73;3.88;;;;;;;17.24;29.07;101763.81;6124546;23;20010;-80
2022/04/18 11:51:00;;;;;;;6.88;4.28;;;;;;;17.49;29.92;101792.28;6124757;23;20095;-81
2022/04/18 11:53:31;;;;;;;7.15;3.75;;;;;;;17.48;32.33;101782.81;6124683;23;20405;-81
2022/04/18 11:55:57;;;;;;;5.32;3.88;;;;;;;17.41;28.99;101777.25;6187523;23;20088;-81
2022/04/18 11:58:23;;;;;;;6.05;4.13;;;;;;;17.53;29.97;101788.50;6216597;23;20024;-80
2022/04/18 12:09:07;;;;;;;6.85;4.05;;;;;;;17.90;29.55;101794.38;6216180;23;20083;-81
2022/04/18 12:11:34;;;;;;;6.35;4.20;;;;;;;18.03;31.15;101789.00;6216360;23;20009;-83
2022/04/18 12:14:00;;;;;;;6.32;3.88;;;;;;;18.13;31.38;101784.69;6216188;23;20439;-80
2022/04/18 12:16:25;;;;;;;5.65;3.97;;;;;;;18.15;31.35;101777.56;6216695;23;20007;-80
2022/04/18 12:18:55;;;;;;;5.93;3.33;;;;;;;18.15;28.03;101758.44;6216400;23;20703;-81
2022/04/18 12:21:20;;;;;;;6.45;3.40;;;;;;;18.28;28.01;101769.53;6216588;23;20302;-81
2022/04/18 12:27:08;;;;;;;5.97;3.15;;;;;;;18.04;27.96;101714.84;6186763;23;20024;-82